Time;durP1;ratioP1;P1;durP2;ratioP2;P2;SDS_P1;SDS_P2;PMS_P1;PMS_P2;Temp;Humidity;BMP_temperature;BMP_pressure;BME280_temperature;BME280_humidity;BME280_pressure;Samples;Min_cycle;Max_cycle;Signal;HPM_P1;HPM_P2
2022/12/12 00:00:23;;;;;;;1.73;0.90;;;;;;;;;;5096075;28;20054;-75
2022/12/12 00:02:49;;;;;;;1.87;1.00;;;;;;;;;;5096164;28;20024;-75
2022/12/12 00:05:16;;;;;;;2.57;1.33;;;;;;;;;;5094974;28;20056;-74
2022/12/12 00:07:42;;;;;;;2.67;1.30;;;;;;;;;;5096363;28;20028;-74
2022/12/12 00:10:09;;;;;;;1.33;0.90;;;;;;;;;;5096259;28;20032;-74
2022/12/12 00:12:36;;;;;;;2.23;1.00;;;;;;;;;;5096284;28;20056;-74
2022/12/12 00:15:02;;;;;;;1.37;0.70;;;;;;;;;;5096218;28;20032;-75
2022/12/12 00:17:28;;;;;;;0.73;0.63;;;;;;;;;;5094925;28;20132;-74
2022/12/12 00:19:54;;;;;;;0.97;0.60;;;;;;;;;;5094491;28;20551;-75
2022/12/12 00:22:20;;;;;;;1.10;0.70;;;;;;;;;;5095980;28;20020;-76
2022/12/12 00:24:46;;;;;;;1.10;0.70;;;;;;;;;;5095905;28;20054;-74
2022/12/12 00:27:12;;;;;;;1.20;0.70;;;;;;;;;;5095759;28;20073;-74
2022/12/12 00:29:38;;;;;;;1.77;0.90;;;;;;;;;;5095688;28;20032;-74
2022/12/12 00:32:04;;;;;;;1.17;0.73;;;;;;;;;;5095343;28;20026;-74
2022/12/12 00:34:30;;;;;;;2.07;1.00;;;;;;;;;;5096110;28;20059;-74
2022/12/12 00:36:56;;;;;;;2.20;1.10;;;;;;;;;;5095671;28;20027;-73
2022/12/12 00:39:23;;;;;;;2.90;1.90;;;;;;;;;;5094324;28;20046;-75
2022/12/12 00:41:49;;;;;;;1.97;1.20;;;;;;;;;;5095549;28;20455;-74
2022/12/12 00:44:15;;;;;;;3.87;1.90;;;;;;;;;;5095524;28;20054;-74
2022/12/12 00:46:41;;;;;;;3.50;1.23;;;;;;;;;;5095446;28;20404;-74
2022/12/12 00:49:07;;;;;;;1.80;1.30;;;;;;;;;;5095540;28;20034;-76
2022/12/12 00:51:34;;;;;;;2.13;1.43;;;;;;;;;;5095241;28;20024;-72
2022/12/12 00:54:00;;;;;;;3.23;1.30;;;;;;;;;;5095199;28;20161;-72
2022/12/12 00:56:27;;;;;;;2.03;1.30;;;;;;;;;;5095306;28;20035;-74
2022/12/12 00:58:53;;;;;;;2.33;1.33;;;;;;;;;;5095083;28;20373;-72
2022/12/12 01:01:23;;;;;;;2.70;1.50;;;;;;;;;;5094954;28;20032;-73
2022/12/12 01:03:50;;;;;;;2.03;1.40;;;;;;;;;;5095071;28;20016;-74
2022/12/12 01:06:16;;;;;;;2.17;1.30;;;;;;;;;;5094988;28;20107;-74
2022/12/12 01:08:42;;;;;;;2.30;1.30;;;;;;;;;;5095021;28;20054;-76
2022/12/12 01:11:10;;;;;;;2.83;1.40;;;;;;;;;;5094890;28;20391;-73
2022/12/12 01:13:36;;;;;;;3.07;1.40;;;;;;;;;;5094920;28;20021;-74
2022/12/12 01:16:02;;;;;;;5.83;1.47;;;;;;;;;;5095012;28;20020;-74
2022/12/12 01:18:28;;;;;;;2.10;1.40;;;;;;;;;;5094958;28;20032;-74
2022/12/12 01:20:54;;;;;;;2.50;1.20;;;;;;;;;;5094325;28;20571;-74
2022/12/12 01:23:20;;;;;;;2.10;1.60;;;;;;;;;;5094588;28;20103;-74
2022/12/12 01:25:46;;;;;;;2.20;1.33;;;;;;;;;;5094878;28;20028;-74
2022/12/12 01:28:13;;;;;;;2.13;1.30;;;;;;;;;;5094551;28;20028;-75
2022/12/12 01:30:39;;;;;;;2.40;1.27;;;;;;;;;;5094231;28;20470;-75
2022/12/12 01:33:05;;;;;;;2.20;1.13;;;;;;;;;;5093174;28;20024;-74
2022/12/12 01:35:32;;;;;;;2.47;1.30;;;;;;;;;;5093084;28;20035;-75
2022/12/12 01:37:59;;;;;;;2.23;1.50;;;;;;;;;;5093043;28;20498;-74
2022/12/12 01:40:26;;;;;;;2.20;1.37;;;;;;;;;;5094331;28;20109;-72
2022/12/12 01:42:53;;;;;;;3.40;1.37;;;;;;;;;;5094073;28;20376;-74
2022/12/12 01:45:38;;;;;;;2.00;1.20;;;;;;;;;;5094089;28;20031;-74
2022/12/12 01:48:04;;;;;;;2.27;1.20;;;;;;;;;;5092713;28;20115;-76
2022/12/12 01:50:30;;;;;;;1.47;1.13;;;;;;;;;;5094183;28;20024;-74
2022/12/12 01:52:56;;;;;;;2.17;1.10;;;;;;;;;;5094157;28;20035;-74
2022/12/12 01:55:22;;;;;;;2.53;1.30;;;;;;;;;;5092771;28;20036;-74
2022/12/12 01:57:51;;;;;;;2.47;1.33;;;;;;;;;;5093067;28;20543;-74
2022/12/12 02:00:17;;;;;;;1.83;1.20;;;;;;;;;;5089178;28;20135;-74
2022/12/12 02:02:45;;;;;;;2.10;1.20;;;;;;;;;;5091144;28;20032;-74
2022/12/12 02:05:20;;;;;;;1.57;1.07;;;;;;;;;;5092775;28;20020;-74
2022/12/12 02:07:46;;;;;;;1.50;1.00;;;;;;;;;;5094184;28;20039;-75
2022/12/12 02:10:12;;;;;;;2.97;1.07;;;;;;;;;;5093676;28;20194;-75
2022/12/12 02:12:38;;;;;;;1.70;1.10;;;;;;;;;;5093331;28;20035;-76
2022/12/12 02:15:05;;;;;;;1.60;1.07;;;;;;;;;;5093564;28;20032;-76
2022/12/12 02:17:30;;;;;;;1.50;1.03;;;;;;;;;;5093770;28;20032;-75
2022/12/12 02:20:12;;;;;;;1.30;0.90;;;;;;;;;;5093549;28;20043;-76
2022/12/12 02:22:56;;;;;;;2.57;1.23;;;;;;;;;;5093731;28;20464;-74
2022/12/12 02:25:22;;;;;;;1.00;0.87;;;;;;;;;;5093116;28;20036;-76
2022/12/12 02:28:08;;;;;;;2.10;1.23;;;;;;;;;;5093379;28;20035;-75
2022/12/12 02:30:57;;;;;;;1.43;1.00;;;;;;;;;;5092192;28;20062;-75
2022/12/12 02:33:39;;;;;;;2.03;1.03;;;;;;;;;;5085399;28;20040;-72
2022/12/12 02:36:11;;;;;;;1.40;0.87;;;;;;;;;;5091733;28;20028;-75
2022/12/12 02:38:46;;;;;;;2.47;1.27;;;;;;;;;;5093312;28;20089;-74
2022/12/12 02:41:12;;;;;;;1.83;1.00;;;;;;;;;;5093385;28;20036;-75
2022/12/12 02:43:43;;;;;;;1.47;0.87;;;;;;;;;;5091890;28;20073;-74
2022/12/12 02:46:17;;;;;;;2.80;1.10;;;;;;;;;;5091871;28;20086;-75
2022/12/12 02:48:46;;;;;;;1.93;1.00;;;;;;;;;;5093493;28;20371;-76
2022/12/12 02:51:13;;;;;;;1.93;1.30;;;;;;;;;;5093274;28;20020;-75
2022/12/12 02:53:39;;;;;;;1.77;1.20;;;;;;;;;;5093111;28;20024;-74
2022/12/12 02:56:28;;;;;;;2.17;1.30;;;;;;;;;;5093077;28;20483;-75
2022/12/12 02:58:55;;;;;;;2.87;1.40;;;;;;;;;;5092736;28;20052;-75
2022/12/12 03:01:28;;;;;;;1.20;0.80;;;;;;;;;;5093142;28;20084;-76
2022/12/12 03:10:01;;;;;;;3.83;1.57;;;;;;;;;;5093291;28;20131;-75
2022/12/12 03:12:39;;;;;;;2.20;1.17;;;;;;;;;;5093391;28;20024;-74
2022/12/12 03:15:14;;;;;;;2.27;1.00;;;;;;;;;;5092828;28;20486;-76
2022/12/12 03:17:46;;;;;;;1.60;1.20;;;;;;;;;;5093049;28;20104;-75
2022/12/12 03:20:14;;;;;;;1.85;1.25;;;;;;;;;;5093234;28;20078;-76
2022/12/12 03:22:40;;;;;;;1.40;1.17;;;;;;;;;;5092996;28;20099;-76
2022/12/12 03:25:13;;;;;;;1.40;0.90;;;;;;;;;;5093177;28;20451;-75
2022/12/12 03:27:43;;;;;;;1.80;1.13;;;;;;;;;;5093038;28;20024;-75
2022/12/12 03:30:16;;;;;;;1.17;0.90;;;;;;;;;;5092864;28;20024;-75
2022/12/12 03:32:48;;;;;;;6.23;1.50;;;;;;;;;;5092638;28;20028;-75
2022/12/12 03:35:23;;;;;;;2.87;1.20;;;;;;;;;;5093209;28;20059;-75
2022/12/12 03:37:51;;;;;;;2.00;1.00;;;;;;;;;;5093057;28;20031;-75
2022/12/12 03:40:29;;;;;;;1.10;0.97;;;;;;;;;;5091452;28;20044;-76
2022/12/12 03:43:03;;;;;;;1.53;1.00;;;;;;;;;;5092599;28;20024;-76
2022/12/12 03:45:29;;;;;;;1.53;1.10;;;;;;;;;;5092835;28;20039;-75
2022/12/12 03:48:07;;;;;;;2.90;1.60;;;;;;;;;;5092773;28;20099;-76
2022/12/12 03:50:36;;;;;;;1.63;1.20;;;;;;;;;;5092493;28;20082;-76
2022/12/12 03:53:02;;;;;;;2.03;1.20;;;;;;;;;;5092467;28;20021;-74
2022/12/12 03:55:31;;;;;;;1.97;1.23;;;;;;;;;;5092831;28;20028;-76
2022/12/12 03:57:57;;;;;;;1.93;1.27;;;;;;;;;;5091399;28;20392;-74
2022/12/12 04:00:23;;;;;;;2.33;1.30;;;;;;;;;;5092166;28;20182;-75
2022/12/12 04:03:05;;;;;;;1.80;1.20;;;;;;;;;;5092675;28;20070;-76
2022/12/12 04:08:37;;;;;;;2.40;1.40;;;;;;;;;;5096156;28;20499;-76
2022/12/12 04:13:57;;;;;;;;;;;;;;;;;;5096819;28;20085;-76
2022/12/12 04:16:29;;;;;;;1.97;1.17;;;;;;;;;;5095030;28;19904;-75
2022/12/12 04:19:02;;;;;;;1.55;1.20;;;;;;;;;;5096151;28;20085;-75
2022/12/12 04:24:34;;;;;;;1.75;1.30;;;;;;;;;;5096137;28;20062;-75
2022/12/12 04:27:20;;;;;;;1.70;1.20;;;;;;;;;;5096255;28;20020;-75
2022/12/12 04:29:58;;;;;;;1.83;1.53;;;;;;;;;;5094564;28;20036;-76
2022/12/12 04:32:35;;;;;;;2.40;1.40;;;;;;;;;;5095732;28;20353;-76
2022/12/12 04:35:01;;;;;;;2.13;1.60;;;;;;;;;;5094445;28;20046;-76
2022/12/12 04:37:39;;;;;;;3.13;1.43;;;;;;;;;;5095839;28;20452;-75
2022/12/12 04:40:07;;;;;;;2.73;1.67;;;;;;;;;;5095607;28;20043;-75
2022/12/12 04:42:36;;;;;;;2.80;1.37;;;;;;;;;;5095482;28;20562;-75
2022/12/12 04:45:11;;;;;;;2.87;1.70;;;;;;;;;;5095217;28;20024;-76
2022/12/12 04:47:38;;;;;;;2.63;1.63;;;;;;;;;;5095768;28;20043;-75
2022/12/12 04:50:05;;;;;;;2.60;1.57;;;;;;;;;;5095430;28;20422;-76
2022/12/12 04:52:33;;;;;;;2.60;1.67;;;;;;;;;;5095519;28;20024;-75
2022/12/12 04:54:59;;;;;;;3.03;1.67;;;;;;;;;;5095357;28;20038;-76
2022/12/12 04:57:28;;;;;;;2.63;1.73;;;;;;;;;;5095072;28;20020;-75
2022/12/12 04:59:54;;;;;;;2.07;1.53;;;;;;;;;;5095193;28;20040;-72
2022/12/12 05:02:20;;;;;;;3.10;1.73;;;;;;;;;;5094094;28;20380;-74
2022/12/12 05:04:51;;;;;;;2.40;1.63;;;;;;;;;;5095326;28;20438;-73
2022/12/12 05:07:30;;;;;;;2.30;1.53;;;;;;;;;;5094870;28;20507;-75
2022/12/12 05:09:57;;;;;;;2.83;1.70;;;;;;;;;;5093665;28;20053;-76
2022/12/12 05:12:23;;;;;;;2.63;1.57;;;;;;;;;;5095036;28;20028;-76
2022/12/12 05:14:49;;;;;;;2.87;1.83;;;;;;;;;;5094927;28;20031;-76
2022/12/12 05:17:17;;;;;;;4.13;1.80;;;;;;;;;;5095101;28;20027;-76
2022/12/12 05:19:43;;;;;;;2.57;1.63;;;;;;;;;;5094819;28;20361;-76
2022/12/12 05:22:09;;;;;;;2.10;1.60;;;;;;;;;;5094506;28;20024;-76
2022/12/12 05:24:35;;;;;;;3.43;1.80;;;;;;;;;;5094629;28;20502;-76
2022/12/12 05:27:02;;;;;;;2.40;1.60;;;;;;;;;;5095078;28;20046;-72
2022/12/12 05:29:28;;;;;;;4.00;1.90;;;;;;;;;;5094907;28;20111;-73
2022/12/12 05:31:54;;;;;;;2.40;1.60;;;;;;;;;;5094737;28;20024;-75
2022/12/12 05:34:20;;;;;;;2.40;1.80;;;;;;;;;;5093171;28;20020;-76
2022/12/12 05:36:46;;;;;;;5.03;2.30;;;;;;;;;;5094696;28;20024;-76
2022/12/12 05:39:12;;;;;;;2.93;1.90;;;;;;;;;;5094252;28;20020;-75
2022/12/12 05:41:38;;;;;;;3.73;2.40;;;;;;;;;;5094255;28;20102;-74
2022/12/12 05:44:05;;;;;;;4.67;2.90;;;;;;;;;;5094507;28;20030;-75
2022/12/12 05:46:31;;;;;;;4.73;2.83;;;;;;;;;;5094507;28;20034;-76
2022/12/12 05:48:57;;;;;;;3.20;2.10;;;;;;;;;;5094245;28;20062;-76
2022/12/12 05:51:24;;;;;;;4.83;3.00;;;;;;;;;;5094238;28;20023;-74
2022/12/12 05:53:50;;;;;;;4.27;3.60;;;;;;;;;;5094301;28;20027;-73
2022/12/12 05:56:16;;;;;;;5.03;2.87;;;;;;;;;;5092938;28;20023;-72
2022/12/12 05:58:42;;;;;;;4.13;3.50;;;;;;;;;;5094215;28;20028;-73
2022/12/12 06:01:08;;;;;;;6.83;2.00;;;;;;;;;;5093664;28;20602;-72
2022/12/12 06:03:34;;;;;;;3.00;2.13;;;;;;;;;;5094174;28;20012;-73
2022/12/12 06:06:01;;;;;;;3.80;2.40;;;;;;;;;;5094276;28;20403;-75
2022/12/12 06:08:27;;;;;;;3.87;2.73;;;;;;;;;;5093891;28;20024;-76
2022/12/12 06:10:53;;;;;;;3.03;2.07;;;;;;;;;;5093990;28;20031;-76
2022/12/12 06:13:19;;;;;;;3.50;2.23;;;3.60;77.50;;;;;;5093990;28;20395;-73
2022/12/12 06:15:45;;;;;;;4.90;2.40;;;;;;;;;;5093769;28;20028;-73
2022/12/12 06:18:11;;;;;;;3.13;2.43;;;;;;;;;;5092661;28;20541;-73
2022/12/12 06:20:37;;;;;;;3.73;2.20;;;;;;;;;;5093699;28;20475;-73
2022/12/12 06:23:03;;;;;;;3.43;2.33;;;;;;;;;;5093496;28;20031;-73
2022/12/12 06:25:29;;;;;;;3.93;2.40;;;;;;;;;;5093840;28;20028;-73
2022/12/12 06:27:55;;;;;;;5.40;2.80;;;;;;;;;;5093673;28;20059;-73
2022/12/12 06:30:22;;;;;;;3.53;3.03;;;;;;;;;;5093029;28;20070;-73
2022/12/12 06:32:47;;;;;;;3.43;2.50;;;2.70;80.90;;;;;;5092211;28;20200;-72
2022/12/12 06:35:13;;;;;;;4.97;3.20;;;2.50;79.60;;;;;;5091849;28;20032;-73
2022/12/12 06:37:39;;;;;;;5.33;3.00;;;2.40;80.30;;;;;;5092250;28;20062;-73
2022/12/12 06:40:06;;;;;;;3.87;2.90;;;2.40;80.30;;;;;;5093354;28;20024;-72
2022/12/12 06:42:31;;;;;;;5.73;3.50;;;2.40;81.00;;;;;;5093052;28;20031;-74
2022/12/12 06:44:57;;;;;;;3.87;2.67;;;2.40;81.80;;;;;;5093271;28;20028;-74
2022/12/12 06:47:23;;;;;;;4.57;2.77;;;;;;;;;;5093163;28;20004;-73
2022/12/12 06:49:49;;;;;;;4.90;3.27;;;;;;;;;;5093138;28;20027;-73
2022/12/12 06:52:15;;;;;;;4.70;3.10;;;;;;;;;;5093285;28;20031;-73
2022/12/12 06:54:41;;;;;;;4.10;2.80;;;;;;;;;;5093122;28;20480;-74
2022/12/12 06:57:07;;;;;;;5.00;3.00;;;2.40;81.40;;;;;;5093032;28;20036;-74
2022/12/12 06:59:33;;;;;;;5.63;3.50;;;;;;;;;;5092564;28;20097;-73
2022/12/12 07:01:59;;;;;;;4.23;3.23;;;2.30;83.20;;;;;;5093163;28;20095;-74
2022/12/12 07:04:26;;;;;;;4.33;2.83;;;;;;;;;;5093088;28;20031;-73
2022/12/12 07:06:53;;;;;;;4.87;2.87;;;;;;;;;;5093003;28;20430;-73
2022/12/12 07:09:19;;;;;;;4.60;3.07;;;;;;;;;;5092733;28;20035;-72
2022/12/12 07:11:45;;;;;;;4.60;2.93;;;2.30;82.90;;;;;;5093290;28;20024;-75
2022/12/12 07:14:11;;;;;;;6.00;3.60;;;2.30;83.30;;;;;;5093347;28;20383;-73
2022/12/12 07:16:37;;;;;;;6.30;3.60;;;2.30;83.80;;;;;;5093006;28;20028;-71
2022/12/12 07:19:03;;;;;;;5.53;4.00;;;2.30;83.90;;;;;;5092912;28;20028;-71
2022/12/12 07:21:29;;;;;;;6.10;3.83;;;2.30;83.90;;;;;;5093149;28;20434;-73
2022/12/12 07:23:55;;;;;;;5.70;3.67;;;;;;;;;;5092938;28;20016;-73
2022/12/12 07:26:22;;;;;;;7.33;4.97;;;2.30;85.10;;;;;;5093184;28;20020;-72
2022/12/12 07:28:50;;;;;;;10.07;6.40;;;2.40;85.80;;;;;;5092830;28;20024;-70
2022/12/12 07:31:18;;;;;;;15.37;8.63;;;2.40;85.90;;;;;;5092031;28;20496;-71
2022/12/12 07:33:45;;;;;;;11.27;7.57;;;2.40;85.60;;;;;;5092079;28;20519;-69
2022/12/12 07:36:14;;;;;;;10.13;7.17;;;2.50;85.30;;;;;;5092528;28;20475;-70
2022/12/12 07:38:40;;;;;;;8.67;5.83;;;2.50;84.80;;;;;;5092303;28;20061;-70
2022/12/12 07:41:08;;;;;;;11.50;4.50;;;2.50;85.00;;;;;;5091556;28;20079;-68
2022/12/12 07:43:36;;;;;;;7.77;4.43;;;2.60;84.80;;;;;;5095753;28;20092;-70
2022/12/12 07:46:04;;;;;;;7.40;4.03;;;2.70;84.50;;;;;;5096702;28;20028;-72
2022/12/12 07:48:30;;;;;;;8.23;4.50;;;2.70;83.60;;;;;;5096349;28;20389;-72
2022/12/12 08:50:52;;;;;;;3.53;2.20;;;;;;;;;;6331142;22;1314462;-68
2022/12/12 08:53:18;;;;;;;5.67;2.60;;;;;;;;;;6314910;22;19995;-67
2022/12/12 08:55:44;;;;;;;2.83;1.93;;;;;;;;;;6220965;22;20506;-67
2022/12/12 08:58:10;;;;;;;4.67;2.93;;;;;;;;;;6253687;22;20003;-67
2022/12/12 09:00:36;;;;;;;4.57;2.80;;;;;;;;;;6253601;22;20004;-67
2022/12/12 09:03:02;;;;;;;4.27;2.20;;;;;;;;;;6253303;22;20050;-68
2022/12/12 09:05:28;;;;;;;6.53;2.50;;;;;;;;;;6253135;22;20035;-68
2022/12/12 09:07:54;;;;;;;6.10;2.80;;;;;;;;;;6253592;22;20000;-68
2022/12/12 09:10:20;;;;;;;3.30;2.50;;;;;;;;;;6252746;22;20054;-67
2022/12/12 09:12:47;;;;;;;3.73;2.50;;;;;;;;;;6245851;22;20000;-67
2022/12/12 09:15:13;;;;;;;8.50;2.83;;;;;;;;;;6246038;22;20003;-67
2022/12/12 09:17:39;;;;;;;4.93;2.70;;;;;;;;;;6247034;22;20307;-68
2022/12/12 09:20:06;;;;;;;3.67;2.60;;;;;;;;;;6246777;22;20009;-67
2022/12/12 09:22:32;;;;;;;4.13;2.80;;;;;;;;;;6246508;22;20131;-67
2022/12/12 09:24:59;;;;;;;6.80;2.60;;;;;;;;;;6244824;23;20410;-67
2022/12/12 09:27:25;;;;;;;7.20;2.50;;;;;;;;;;6246722;22;20026;-68
2022/12/12 09:29:51;;;;;;;3.43;2.33;;;;;;;;;;6246342;22;20012;-67
2022/12/12 09:32:17;;;;;;;3.57;2.30;;;;;;;;;;6245449;22;20071;-67
2022/12/12 09:34:43;;;;;;;4.37;2.53;;;;;;;;;;6246331;22;20405;-67
2022/12/12 09:37:09;;;;;;;3.43;2.50;;;;;;;;;;6246048;22;20003;-68
2022/12/12 09:39:35;;;;;;;3.60;2.27;;;;;;;;;;6246523;22;20007;-68
2022/12/12 09:42:28;;;;;;;2.97;2.27;;;;;;;;;;6246028;22;20004;-68
2022/12/12 09:44:56;;;;;;;3.30;2.33;;;;;;;;;;6243809;23;20000;-71
2022/12/12 09:47:30;;;;;;;2.80;2.00;;;;;;;;;;6246603;22;20067;-67
2022/12/12 09:49:56;;;;;;;4.63;2.53;;;;;;;;;;6246172;22;20316;-67
2022/12/12 09:52:28;;;;;;;13.60;6.17;;;;;;;;;;6271284;22;20039;-67
2022/12/12 09:54:54;;;;;;;4.13;2.78;;;;;;;;;;6277460;22;20057;-67
2022/12/12 09:57:31;;;;;;;4.57;3.10;;;;;;;;;;6277480;22;20429;-67
2022/12/12 10:00:26;;;;;;;4.47;3.13;;;;;;;;;;6277297;22;20333;-67
2022/12/12 10:03:04;;;;;;;4.03;2.97;;;5.00;65.90;;;;;;6250268;22;20010;-66
2022/12/12 10:05:38;;;;;;;4.40;3.03;;;5.10;66.40;;;;;;6277809;22;20512;-66
2022/12/12 10:08:04;;;;;;;12.07;3.40;;;5.10;66.80;;;;;;6277637;22;20071;-67
2022/12/12 10:10:37;;;;;;;4.83;3.00;;;5.20;67.10;;;;;;6277355;22;20046;-67
2022/12/12 10:13:10;;;;;;;5.35;2.88;;;5.20;66.60;;;;;;6277448;22;20059;-67
2022/12/12 10:15:37;;;;;;;4.43;2.80;;;5.30;66.10;;;;;;6277163;22;20449;-67
2022/12/12 10:18:17;;;;;;;8.23;4.40;;;5.30;65.50;;;;;;6276615;22;20004;-67
2022/12/12 10:20:55;;;;;;;5.07;3.23;;;5.40;66.10;;;;;;6276622;22;20079;-67
2022/12/12 10:23:27;;;;;;;5.70;3.10;;;5.50;66.70;;;;;;6275622;22;20008;-67
2022/12/12 10:26:15;;;;;;;3.03;2.33;;;5.50;66.90;;;;;;6276499;22;20046;-66
2022/12/12 10:28:41;;;;;;;3.70;2.10;;;5.50;65.20;;;;;;6276685;22;20318;-67
2022/12/12 10:31:19;;;;;;;3.77;2.03;;;5.60;64.90;;;;;;6275693;22;20086;-67
2022/12/12 10:34:22;;;;;;;3.50;2.00;;;5.60;64.10;;;;;;6276852;22;20418;-67
2022/12/12 10:36:57;;;;;;;5.40;2.10;;;5.70;63.60;;;;;;6277237;22;20007;-67
2022/12/12 10:39:45;;;;;;;4.03;1.50;;;5.80;62.50;;;;;;6277273;22;20045;-67
2022/12/12 10:42:36;;;;;;;5.20;1.70;;;5.80;62.00;;;;;;6232005;22;20010;-67
2022/12/12 10:45:20;;;;;;;2.93;1.80;;;5.90;61.00;;;;;;6277331;22;20011;-66
2022/12/12 10:47:46;;;;;;;3.00;1.90;;;5.90;61.70;;;;;;6277151;22;20723;-69
2022/12/12 10:50:33;;;;;;;3.83;2.43;;;5.90;63.10;;;;;;6277062;22;20011;-66
2022/12/12 10:53:00;;;;;;;3.03;2.03;;;6.00;63.00;;;;;;6277234;22;20007;-68
2022/12/12 10:55:54;;;;;;;3.03;1.50;;;6.00;62.20;;;;;;6276910;22;20239;-66
2022/12/12 10:58:26;;;;;;;;;;;6.10;61.40;;;;;;6237234;22;20000;-66
2022/12/12 11:01:00;;;;;;;3.67;1.53;;;6.10;61.30;;;;;;6276752;22;19906;-66
2022/12/12 11:03:35;;;;;;;3.40;1.60;;;6.20;58.60;;;;;;6276746;22;19996;-66
2022/12/12 11:06:11;;;;;;;2.97;1.50;;;6.20;58.60;;;;;;6276462;22;20010;-67
2022/12/12 11:08:37;;;;;;;4.47;1.83;;;6.30;59.20;;;;;;6276837;22;20050;-66
2022/12/12 11:11:09;;;;;;;2.53;1.70;;;6.30;58.40;;;;;;6276750;22;20434;-67
2022/12/12 11:13:44;;;;;;;2.73;1.70;;;6.40;58.70;;;;;;6276799;22;20006;-69
2022/12/12 11:16:17;;;;;;;3.17;1.80;;;6.40;59.10;;;;;;6276644;22;20099;-66
2022/12/12 11:19:14;;;;;;;2.70;1.93;;;6.50;58.30;;;;;;6276264;22;20007;-67
2022/12/12 11:21:39;;;;;;;2.23;1.63;;;6.50;56.80;;;;;;6276432;22;20003;-66
2022/12/12 11:24:11;;;;;;;2.73;1.60;;;6.60;57.70;;;;;;6276349;22;20070;-67
2022/12/12 11:26:48;;;;;;;2.97;1.57;;;6.60;57.30;;;;;;6276500;22;20008;-67
2022/12/12 11:29:31;;;;;;;2.47;1.83;;;6.70;57.40;;;;;;6275800;22;20070;-67
2022/12/12 11:31:57;;;;;;;3.95;2.38;;;6.70;57.30;;;;;;6276243;22;20011;-67
2022/12/12 11:34:26;;;;;;;2.47;1.73;;;6.80;58.00;;;;;;6276358;22;19996;-66
2022/12/12 11:36:52;;;;;;;17.93;13.67;;;6.80;58.00;;;;;;6276133;22;19999;-67
2022/12/12 11:39:31;;;;;;;2.90;1.97;;;6.90;59.90;;;;;;6276340;22;20438;-67
2022/12/12 11:42:02;;;;;;;4.33;2.40;;;6.90;61.60;;;;;;6276456;22;19999;-67
2022/12/12 11:44:36;;;;;;;3.00;2.10;;;6.90;59.70;;;;;;6276551;22;20088;-67
2022/12/12 11:47:19;;;;;;;2.27;1.67;;;6.90;60.70;;;;;;6276660;22;20000;-67
2022/12/12 11:49:59;;;;;;;3.20;1.70;;;6.90;58.90;;;;;;6276344;22;20056;-67
2022/12/12 11:52:30;;;;;;;4.00;2.00;;;7.00;59.80;;;;;;6275971;22;20016;-67
2022/12/12 11:54:56;;;;;;;2.23;1.87;;;7.00;58.70;;;;;;6275261;22;19995;-67
2022/12/12 11:57:56;;;;;;;2.53;1.60;;;7.00;57.40;;;;;;6274749;22;20004;-67
2022/12/12 12:00:23;;;;;;;2.67;1.50;;;7.00;57.40;;;;;;6276629;22;20075;-67
2022/12/12 12:03:11;;;;;;;2.40;1.70;;;7.00;55.70;;;;;;6274817;22;20454;-67
2022/12/12 12:06:05;;;;;;;2.33;1.40;;;7.00;56.20;;;;;;6276116;22;20031;-67
2022/12/12 12:08:52;;;;;;;2.47;1.77;;;7.00;55.40;;;;;;6274400;22;20011;-67
2022/12/12 12:11:32;;;;;;;3.63;2.60;;;7.10;58.10;;;;;;6276436;22;20012;-66
2022/12/12 12:14:22;;;;;;;2.80;2.23;;;7.10;56.70;;;;;;6276715;22;19996;-67
2022/12/12 12:17:03;;;;;;;3.53;2.00;;;7.10;56.80;;;;;;6276284;22;20000;-67
2022/12/12 12:19:58;;;;;;;5.23;2.13;;;7.10;56.60;;;;;;6275776;22;20414;-68
2022/12/12 12:22:36;;;;;;;2.83;1.70;;;7.10;55.70;;;;;;6276091;22;20126;-67
2022/12/12 12:25:23;;;;;;;2.73;1.70;;;7.10;56.10;;;;;;6276540;22;20006;-67
2022/12/12 12:28:07;;;;;;;4.57;1.60;;;7.10;55.80;;;;;;6275896;22;20133;-67
2022/12/12 12:30:59;;;;;;;2.27;1.60;;;7.10;55.70;;;;;;6275969;22;20054;-67
2022/12/12 12:33:33;;;;;;;3.50;2.63;;;7.10;55.40;;;;;;6276154;22;20004;-69
2022/12/12 12:36:01;;;;;;;6.77;3.30;;;7.10;56.20;;;;;;6275624;22;20007;-66
2022/12/12 12:39:05;;;;;;;2.60;1.80;;;7.10;57.40;;;;;;6275639;22;20050;-67
2022/12/12 12:42:00;;;;;;;2.80;2.10;;;7.00;54.70;;;;;;6276130;22;20365;-67
2022/12/12 12:44:45;;;;;;;3.23;2.03;;;7.00;56.80;;;;;;6275186;22;20072;-67
2022/12/12 12:47:32;;;;;;;4.13;2.10;;;7.00;56.40;;;;;;6276081;22;20003;-66
2022/12/12 12:50:18;;;;;;;3.33;2.00;;;7.00;55.60;;;;;;6277417;22;20499;-66
2022/12/12 12:52:59;;;;;;;2.50;1.70;;;7.00;56.50;;;;;;6277871;22;20007;-66
2022/12/12 12:55:33;;;;;;;4.03;2.13;;;7.00;55.80;;;;;;6277703;22;20003;-69
2022/12/12 12:58:02;;;;;;;3.80;1.87;;;7.00;58.40;;;;;;6277306;22;20430;-67
2022/12/12 13:00:29;;;;;;;4.03;1.80;;;7.00;58.40;;;;;;6277719;22;20054;-66
2022/12/12 13:03:16;;;;;;;3.00;2.07;;;7.00;58.20;;;;;;6277684;22;19996;-66
2022/12/12 13:05:55;;;;;;;3.50;1.80;;;7.00;58.30;;;;;;6277607;22;20322;-69
2022/12/12 13:08:29;;;;;;;2.30;1.80;;;7.00;58.30;;;;;;6277826;22;20022;-67
2022/12/12 13:11:05;;;;;;;2.77;1.97;;;7.00;58.20;;;;;;6277686;22;20014;-65
2022/12/12 13:13:35;;;;;;;3.17;2.00;;;6.90;57.70;;;;;;6277798;22;20000;-69
2022/12/12 13:16:14;;;;;;;3.47;2.63;;;6.90;56.90;;;;;;6277597;22;20008;-70
2022/12/12 13:18:43;;;;;;;3.77;2.50;;;6.90;57.60;;;;;;6277821;22;19995;-66
2022/12/12 13:21:20;;;;;;;2.77;2.13;;;6.90;56.70;;;;;;6277591;22;20014;-67
2022/12/12 13:23:59;;;;;;;3.43;2.10;;;;;;;;;;6277964;22;20065;-66
2022/12/12 13:26:36;;;;;;;3.27;2.20;;;;;;;;;;6301680;22;20338;-69
2022/12/12 13:29:11;;;;;;;5.57;2.03;;;;;;;;;;6277606;22;20049;-69
2022/12/12 13:31:38;;;;;;;4.40;2.10;;;;;;;;;;6277640;22;20016;-66
2022/12/12 13:34:10;;;;;;;4.80;2.37;;;;;;;;;;6277391;22;20000;-66
2022/12/12 13:36:37;;;;;;;5.05;3.58;;;;;;;;;;6277721;22;20154;-70
2022/12/12 13:39:05;;;;;;;12.80;4.73;;;;;;;;;;6277758;22;20479;-69
2022/12/12 13:42:00;;;;;;;5.67;2.77;;;;;;;;;;6277181;22;19999;-66
2022/12/12 13:44:35;;;;;;;4.53;3.13;;;;;;;;;;6257912;22;20008;-66
2022/12/12 13:47:02;;;;;;;3.17;1.97;;;;;;;;;;6277057;22;20007;-66
2022/12/12 13:49:32;;;;;;;3.40;1.90;;;;;;;;;;6277638;22;20010;-66
2022/12/12 13:52:16;;;;;;;3.27;1.80;;;;;;;;;;6276194;22;20007;-66
2022/12/12 13:54:43;;;;;;;4.33;1.60;;;;;;;;;;6276785;22;20000;-69
2022/12/12 13:57:14;;;;;;;2.70;1.93;;;;;;;;;;6277291;22;20000;-66
2022/12/12 13:59:52;;;;;;;4.90;2.77;;;;;;;;;;6276995;22;20426;-66
2022/12/12 14:02:29;;;;;;;5.03;1.90;;;;;;;;;;6276582;22;20004;-68
2022/12/12 14:05:07;;;;;;;2.87;1.80;;;;;;;;;;6277493;22;20012;-67
2022/12/12 14:07:33;;;;;;;2.73;2.17;;;;;;;;;;6277229;22;20039;-67
2022/12/12 14:10:01;;;;;;;2.43;1.70;;;;;;;;;;6277012;22;20016;-67
2022/12/12 14:12:32;;;;;;;4.00;1.90;;;;;;;;;;6276269;22;19996;-66
2022/12/12 14:15:27;;;;;;;3.40;2.37;;;;;;;;;;6274273;22;20054;-66
2022/12/12 14:17:59;;;;;;;1.90;1.30;;;;;;;;;;6256197;22;19999;-66
2022/12/12 14:20:35;;;;;;;4.50;1.53;;;;;;;;;;6276816;22;20006;-66
2022/12/12 14:23:10;;;;;;;1.80;1.30;;;;;;;;;;6276981;22;20480;-69
2022/12/12 14:25:37;;;;;;;1.90;1.30;;;;;;;;;;6275847;22;20004;-66
2022/12/12 14:28:14;;;;;;;3.23;1.57;;;;;;;;;;6277105;22;19996;-66
2022/12/12 14:30:45;;;;;;;2.80;1.50;;;;;;;;;;6276586;22;20046;-66
2022/12/12 14:33:25;;;;;;;3.43;1.90;;;;;;;;;;6275600;22;20008;-66
2022/12/12 14:35:58;;;;;;;1.63;1.23;;;;;;;;;;6275899;22;20066;-67
2022/12/12 14:38:24;;;;;;;3.00;1.50;;;;;;;;;;6276326;22;19999;-67
2022/12/12 14:40:52;;;;;;;3.87;2.00;;;;;;;;;;6276382;22;20291;-67
2022/12/12 14:43:23;;;;;;;3.67;2.20;;;;;;;;;;6276812;22;20000;-67
2022/12/12 14:45:49;;;;;;;5.40;2.60;;;;;;;;;;6277139;22;20313;-67
2022/12/12 14:48:17;;;;;;;5.80;2.70;;;;;;;;;;6277206;22;20074;-67
2022/12/12 14:50:48;;;;;;;5.67;2.30;;;;;;;;;;6277104;22;20074;-67
2022/12/12 14:53:23;;;;;;;3.10;2.40;;;;;;;;;;6277207;22;20004;-67
2022/12/12 14:55:59;;;;;;;6.97;2.70;;;;;;;;;;6276840;22;19995;-67
2022/12/12 14:58:27;;;;;;;4.00;2.50;;;;;;;;;;6276136;22;20007;-66
2022/12/12 15:00:58;;;;;;;6.20;2.30;;;;;;;;;;6276263;22;20004;-68
2022/12/12 15:03:27;;;;;;;4.20;2.90;;;;;;;;;;6276487;22;20010;-67
2022/12/12 15:06:11;;;;;;;5.33;3.33;;;;;;;;;;6276317;22;20009;-68
2022/12/12 15:08:38;;;;;;;5.10;3.80;;;;;;;;;;6275967;22;20000;-67
2022/12/12 15:11:04;;;;;;;7.57;3.83;;;;;;;;;;6276112;22;20315;-67
2022/12/12 15:13:30;;;;;;;7.57;3.57;;;;;;;;;;6276541;22;19996;-67
2022/12/12 15:15:56;;;;;;;5.93;3.40;;;;;;;;;;6276568;22;20007;-66
2022/12/12 15:18:22;;;;;;;8.13;3.20;;;;;;;;;;6300355;22;20311;-67
2022/12/12 15:20:48;;;;;;;5.57;3.33;;;;;;;;;;6275707;22;20046;-67
2022/12/12 15:23:17;;;;;;;6.13;3.47;;;;;;;;;;6275746;22;20000;-67
2022/12/12 15:25:47;;;;;;;7.00;4.00;;;;;;;;;;6276387;22;20004;-67
2022/12/12 15:28:19;;;;;;;6.33;4.03;;;;;;;;;;6276271;22;20079;-67
2022/12/12 15:30:46;;;;;;;7.77;4.07;;;;;;;;;;6276389;22;20012;-67
2022/12/12 15:33:16;;;;;;;8.23;4.60;;;;;;;;;;6276373;22;20024;-67
2022/12/12 15:36:08;;;;;;;7.50;4.13;;;;;;;;;;6276354;22;20031;-67
2022/12/12 15:38:34;;;;;;;5.77;3.83;;;;;;;;;;6272529;22;20000;-67
2022/12/12 15:41:02;;;;;;;7.33;4.17;;;;;;;;;;6276792;22;20218;-67
2022/12/12 15:43:29;;;;;;;6.53;3.83;;;;;;;;;;6276797;22;20007;-67
2022/12/12 15:45:56;;;;;;;7.37;4.17;;;;;;;;;;6276087;22;20134;-67